MSC Vanessa — HOWD — position and weather

sailwx.info

Track history (hours):
 
Tides and Currents Weather Stations Pressure Air Temp Water Temp Dewpoint Dewpoint Depression Visibility Wind Speed Wind Dir Waves Ship Positions

MSC Vanessa

Last reported at 2016-Sep-24 09:33 UTC. Time now 2016-Sep-27 07:01 UTC.
Position N 31°56' W 080°19'.

Length 300 m; draft 11.1 m.

Type: Ship (hazmat cat D). MMSI: 356946000.

Date/timePositionNaut miles runAvg speedWind from/ knotsBaromVisibWave heightAir tempDewpointWater temp
2016-Sep-24 09:33N 31°56' W 080°19'44 7.2
2016-Sep-24 03:32N 32°08' W 081°08'0 0.0
2016-Sep-24 02:32N 32°08' W 081°08'0 0.0
2016-Sep-24 01:32N 32°08' W 081°08'0 0.0
2016-Sep-24 00:32N 32°08' W 081°08'0 0.0
2016-Sep-23 19:32N 32°08' W 081°08'0 0.0
2016-Sep-23 17:32N 32°08' W 081°08'0 0.0
2016-Sep-23 16:32N 32°08' W 081°08'0 0.0
2016-Sep-23 15:32N 32°08' W 081°08'0 0.0
2016-Sep-23 13:32N 32°08' W 081°08'0 0.0
2016-Sep-23 09:33N 32°08' W 081°08'26 8.6
2016-Sep-23 06:33N 31°57' W 080°40'18 9.0
2016-Sep-23 04:32N 31°59' W 080°19'2 2.4
2016-Sep-23 03:31N 31°59' W 080°16'5 4.7
2016-Sep-23 02:30N 31°59' W 080°11'36410.7
2016-Sep-21 16:33N 36°60' W 076°01'12117.3
2016-Sep-21 09:34N 38°59' W 076°23'1312.8
2016-Sep-21 08:33N 39°11' W 076°28'5 1.7
2016-Sep-21 05:31N 39°15' W 076°33'0 0.0
2016-Sep-21 03:31N 39°15' W 076°33'0 0.0
2016-Sep-21 02:31N 39°15' W 076°33'0 0.0
2016-Sep-20 17:31N 39°15' W 076°33'2 0.7
2016-Sep-20 14:33N 39°13' W 076°32'9 9.3
2016-Sep-20 13:34N 39°07' W 076°24'5216.5
2016-Sep-20 10:23N 38°15' W 076°16'6416.7
2016-Sep-20 06:33N 37°11' W 076°09'18211.3
2016-Sep-19 14:32N 39°37' W 073°52'1818.8
2016-Sep-19 13:33N 39°55' W 073°51'1919.0
2016-Sep-19 12:33N 40°15' W 073°49'1313.2
2016-Sep-19 11:33N 40°28' W 073°51'18 9.0
2016-Sep-19 09:33N 40°40' W 074°09'2 0.8
2016-Sep-19 07:32N 40°41' W 074°09'0 0.0
2016-Sep-19 06:29N 40°41' W 074°09'0 0.0
2016-Sep-19 03:31N 40°41' W 074°09'0 0.0
2016-Sep-19 02:32N 40°41' W 074°09'0 0.0
2016-Sep-19 00:22N 40°41' W 074°09'0 0.0
2016-Sep-18 19:25N 40°41' W 074°09'0 0.0
2016-Sep-18 15:28N 40°41' W 074°09'0 0.0
2016-Sep-18 14:29N 40°41' W 074°09'0 0.0
2016-Sep-18 10:31N 40°41' W 074°09'0 0.0
2016-Sep-18 09:29N 40°41' W 074°09'38 5.4
2016-Sep-18 02:33N 40°09' W 073°44'1212.4
2016-Sep-18 01:33N 39°57' W 073°42'1313.5
2016-Sep-18 00:33N 39°43' W 073°40'2713.5
2016-Sep-17 22:33N 39°16' W 073°39'1 0.5
2016-Sep-17 21:31N 39°16' W 073°38'1 0.5
2016-Sep-17 20:33N 39°16' W 073°38'0 0.4
2016-Sep-17 19:16N 39°15' W 073°37'54 9.5
2016-Sep-17 13:33N 38°26' W 074°06'1312.8
2016-Sep-17 12:33N 38°14' W 074°12'2713.4
2016-Sep-17 10:33N 37°50' W 074°27'1313.3
2016-Sep-17 09:33N 37°38' W 074°34'1212.1
2016-Sep-17 08:31N 37°28' W 074°44'1212.4
2016-Sep-17 07:33N 37°19' W 074°54'4212.7
2016-Sep-17 04:16N 36°52' W 075°34'3710.1
2016-Sep-17 00:33N 36°53' W 076°20'0 0.1
2016-Sep-16 17:31N 36°53' W 076°21'0 0.0
2016-Sep-16 15:31N 36°53' W 076°21'0 0.0
2016-Sep-16 12:28N 36°53' W 076°21'2 0.8
2016-Sep-16 09:33N 36°55' W 076°20'  
Track history (hours):
 
Tides and Currents Weather Stations Pressure Air Temp Water Temp Dewpoint Dewpoint Depression Visibility Wind Speed Wind Dir Waves Ship Positions

MSC Vanessa

Last reported at 2016-Sep-24 09:33 UTC. Time now 2016-Sep-27 07:01 UTC.
Position N 31°56' W 080°19'.

Length 300 m; draft 11.1 m.

Type: Ship (hazmat cat D). MMSI: 356946000.

Date/timePositionNaut miles runAvg speedWind from/ knotsBaromVisibWave heightAir tempDewpointWater temp
2016-Sep-24 09:33N 31°56' W 080°19'44 7.2
2016-Sep-24 03:32N 32°08' W 081°08'0 0.0
2016-Sep-24 02:32N 32°08' W 081°08'0 0.0
2016-Sep-24 01:32N 32°08' W 081°08'0 0.0
2016-Sep-24 00:32N 32°08' W 081°08'0 0.0
2016-Sep-23 19:32N 32°08' W 081°08'0 0.0
2016-Sep-23 17:32N 32°08' W 081°08'0 0.0
2016-Sep-23 16:32N 32°08' W 081°08'0 0.0
2016-Sep-23 15:32N 32°08' W 081°08'0 0.0
2016-Sep-23 13:32N 32°08' W 081°08'0 0.0
2016-Sep-23 09:33N 32°08' W 081°08'26 8.6
2016-Sep-23 06:33N 31°57' W 080°40'18 9.0
2016-Sep-23 04:32N 31°59' W 080°19'2 2.4
2016-Sep-23 03:31N 31°59' W 080°16'5 4.7
2016-Sep-23 02:30N 31°59' W 080°11'36410.7
2016-Sep-21 16:33N 36°60' W 076°01'12117.3
2016-Sep-21 09:34N 38°59' W 076°23'1312.8
2016-Sep-21 08:33N 39°11' W 076°28'5 1.7
2016-Sep-21 05:31N 39°15' W 076°33'0 0.0
2016-Sep-21 03:31N 39°15' W 076°33'0 0.0
2016-Sep-21 02:31N 39°15' W 076°33'0 0.0
2016-Sep-20 17:31N 39°15' W 076°33'2 0.7
2016-Sep-20 14:33N 39°13' W 076°32'9 9.3
2016-Sep-20 13:34N 39°07' W 076°24'5216.5
2016-Sep-20 10:23N 38°15' W 076°16'6416.7
2016-Sep-20 06:33N 37°11' W 076°09'18211.3
2016-Sep-19 14:32N 39°37' W 073°52'1818.8
2016-Sep-19 13:33N 39°55' W 073°51'1919.0
2016-Sep-19 12:33N 40°15' W 073°49'1313.2
2016-Sep-19 11:33N 40°28' W 073°51'18 9.0
2016-Sep-19 09:33N 40°40' W 074°09'2 0.8
2016-Sep-19 07:32N 40°41' W 074°09'0 0.0
2016-Sep-19 06:29N 40°41' W 074°09'0 0.0
2016-Sep-19 03:31N 40°41' W 074°09'0 0.0
2016-Sep-19 02:32N 40°41' W 074°09'0 0.0
2016-Sep-19 00:22N 40°41' W 074°09'0 0.0
2016-Sep-18 19:25N 40°41' W 074°09'0 0.0
2016-Sep-18 15:28N 40°41' W 074°09'0 0.0
2016-Sep-18 14:29N 40°41' W 074°09'0 0.0
2016-Sep-18 10:31N 40°41' W 074°09'0 0.0
2016-Sep-18 09:29N 40°41' W 074°09'38 5.4
2016-Sep-18 02:33N 40°09' W 073°44'1212.4
2016-Sep-18 01:33N 39°57' W 073°42'1313.5
2016-Sep-18 00:33N 39°43' W 073°40'2713.5
2016-Sep-17 22:33N 39°16' W 073°39'1 0.5
2016-Sep-17 21:31N 39°16' W 073°38'1 0.5
2016-Sep-17 20:33N 39°16' W 073°38'0 0.4
2016-Sep-17 19:16N 39°15' W 073°37'54 9.5
2016-Sep-17 13:33N 38°26' W 074°06'1312.8
2016-Sep-17 12:33N 38°14' W 074°12'2713.4
2016-Sep-17 10:33N 37°50' W 074°27'1313.3
2016-Sep-17 09:33N 37°38' W 074°34'1212.1
2016-Sep-17 08:31N 37°28' W 074°44'1212.4
2016-Sep-17 07:33N 37°19' W 074°54'4212.7
2016-Sep-17 04:16N 36°52' W 075°34'3710.1
2016-Sep-17 00:33N 36°53' W 076°20'0 0.1
2016-Sep-16 17:31N 36°53' W 076°21'0 0.0
2016-Sep-16 15:31N 36°53' W 076°21'0 0.0
2016-Sep-16 12:28N 36°53' W 076°21'2 0.8
2016-Sep-16 09:33N 36°55' W 076°20'  

Dump ship's entire track history